Flight Track Log - Related Links

Times and Time Zones

All times are in EDT time to prevent confusion due to time zone crossing. See the DAL1051 flight status page for this flight to view local times or setup timezone preferences in your user account.

Time Position Orientation Groundspeed Altitude Reporting Facility
EDT Latitude Longitude Course Direction KTS MPH feet Rate Location/Type
Mon 03:32:57 PM 45.8283 -108.5803 95° East 185 213 5,100  Level Salt Lake Center
Mon 03:33:59 PM 45.8900 -108.5764 North 259 298 6,100 1,984 Climbing Salt Lake Center
Mon 03:35:00 PM 45.8102 -107.9999 100° East  Level Estimated
Mon 03:35:01 PM 45.9033 -108.4686 80° East 290 334 9,200  Level Salt Lake Center
Mon 03:36:00 PM 45.8105 -107.8188 99° East  Level Estimated
Mon 03:36:03 PM 45.8725 -108.3506 111° Southeast 293 337 11,700  Level Salt Lake Center
Mon 03:37:00 PM 45.7609 -107.6525 113° Southeast  Level FlightAware Approximate
Mon 03:37:05 PM 45.8428 -108.2278 109° East 325 374 13,700  Level Salt Lake Center
Mon 03:38:00 PM 45.7612 -107.4716 95° East  Level Estimated
Mon 03:38:07 PM 45.8078 -108.0769 108° East 368 423 14,700  Level Salt Lake Center
Mon 03:39:09 PM 45.7725 -107.9217 108° East 411 473 16,900 2,177 Climbing Salt Lake Center
Mon 03:40:11 PM 45.7481 -107.7417 101° East 426 490 19,200 1,984 Climbing Salt Lake Center
Mon 03:41:13 PM 45.7300 -107.5694 98° East 441 507 21,000 1,597 Climbing Salt Lake Center
Mon 03:42:15 PM 45.7094 -107.3911 99° East 452 520 22,500 1,065 Climbing Salt Lake Center
Mon 03:43:17 PM 45.6931 -107.2031 97° East 472 543 23,200 823 Climbing Salt Lake Center
Mon 03:44:19 PM 45.6775 -107.0044 96° East 493 567 24,200 1,220 Climbing Salt Lake Center
Mon 03:45:20 PM 45.6578 -106.8003 98° East 508 585 25,700 1,463 Climbing Salt Lake Center
Mon 03:46:22 PM 45.6381 -106.5964 98° East 514 592 27,200 1,790 Climbing Salt Lake Center
Mon 03:47:24 PM 45.6186 -106.3622 97° East 505 581 29,400 1,790 Climbing Salt Lake Center
Mon 03:48:26 PM 45.5994 -106.1692 98° East 497 572 30,900 1,597 Climbing Salt Lake Center
Mon 03:49:28 PM 45.5814 -105.9792 98° East 489 563 32,700 1,258 Climbing Salt Lake Center
Mon 03:50:30 PM 45.5639 -105.7961 98° East 475 547 33,500 1,065 Climbing Salt Lake Center
Mon 03:51:32 PM 45.5447 -105.6122 98° East 470 541 34,900 732 Climbing Salt Lake Center
Mon 03:52:33 PM 45.5258 -105.4286 98° East 469 540 35,000 439 Climbing Salt Lake Center
Mon 03:53:35 PM 45.5069 -105.2411 98° East 475 547 35,800 823 Climbing Salt Lake Center
Mon 03:54:37 PM 45.4836 -105.0186 98° East 475 547 36,700 581 Climbing Salt Lake Center
Mon 03:55:39 PM 45.4628 -104.8344 99° East 473 544 37,000 145 Climbing Salt Lake Center
Mon 03:56:41 PM 45.4431 -104.6461 98° East 477 549 37,000 -48 Level Salt Lake Center
Mon 03:57:43 PM 45.4214 -104.4575 99° East 490 564 36,900 -48 Descending Salt Lake Center
Mon 03:58:45 PM 45.3975 -104.2611 100° East 501 577 36,900  Level Salt Lake Center
Mon 03:59:47 PM 45.3758 -104.0647 99° East 504 580 36,900  Level Salt Lake Center
Mon 04:00:49 PM 45.3481 -103.8247 99° East 506 582 36,900 48 Level Salt Lake Center
Mon 04:01:51 PM 45.3253 -103.6356 100° East 503 579 37,000  Climbing Salt Lake Center
Mon 04:02:53 PM 45.3022 -103.4458 100° East 493 567 36,900  Descending Salt Lake Center
Mon 04:03:28 PM 45.2864 -103.3172 100° East 495 570 37,000 62 Climbing Minneapolis Center
Mon 04:04:30 PM 45.2631 -103.1242 100° East 496 571 37,000  Level Minneapolis Center
Mon 04:05:32 PM 45.2392 -102.9317 100° East 497 572 37,000  Level Minneapolis Center
Mon 04:06:34 PM 45.2139 -102.7375 100° East 499 574 37,000  Level Minneapolis Center
Mon 04:07:36 PM 45.1894 -102.5436 100° East 500 575 37,000  Level Minneapolis Center
Mon 04:08:38 PM 45.1639 -102.3533 101° East 496 571 37,000  Level Minneapolis Center
Mon 04:09:40 PM 45.1333 -102.1225 101° East 497 572 37,000  Level Minneapolis Center
Mon 04:10:42 PM 45.1072 -101.9325 101° East 494 568 37,000  Level Minneapolis Center
Mon 04:11:44 PM 45.0808 -101.7417 101° East 494 568 37,000  Level Minneapolis Center
Mon 04:12:46 PM 45.0664 -101.5492 96° East 493 567 37,000  Level Minneapolis Center
Mon 04:13:48 PM 45.0544 -101.3556 95° East 495 570 37,000  Level Minneapolis Center
Mon 04:14:50 PM 45.0411 -101.1636 96° East 492 566 37,000  Level Minneapolis Center
Mon 04:15:52 PM 45.0306 -100.9703 94° East 494 568 37,000  Level Minneapolis Center
Mon 04:16:54 PM 45.0342 -100.7353 89° East 499 574 37,000  Level Minneapolis Center
Mon 04:17:55 PM 45.0369 -100.5444 89° East 490 564 37,000  Level Minneapolis Center
Mon 04:18:57 PM 45.0442 -100.3519 87° East 491 565 37,000  Level Minneapolis Center
Mon 04:19:59 PM 45.0442 -100.1600 90° East 490 564 37,000  Level Minneapolis Center
Mon 04:21:01 PM 45.0439 -99.9578 90° East 492 566 37,000  Level Minneapolis Center
Mon 04:22:03 PM 45.0469 -99.7486 89° East 498 573 37,000  Level Minneapolis Center
Mon 04:23:05 PM 45.0475 -99.5547 90° East 496 571 37,000  Level Minneapolis Center
Mon 04:24:07 PM 45.0478 -99.3611 90° East 494 568 37,000  Level Minneapolis Center
Mon 04:25:09 PM 45.0475 -99.1664 90° East 495 570 37,000  Level Minneapolis Center
Mon 04:26:11 PM 45.0472 -98.9344 90° East 493 567 37,000  Level Minneapolis Center
Mon 04:27:13 PM 45.0467 -98.7392 90° East 495 570 37,000  Level Minneapolis Center
Mon 04:28:16 PM 45.0450 -98.5467 91° East 492 566 37,000  Level Minneapolis Center
Mon 04:29:18 PM 45.0436 -98.3531 91° East 493 567 37,000  Level Minneapolis Center
Mon 04:30:20 PM 45.0417 -98.1353 91° East 492 566 37,000  Level Minneapolis Center
Mon 04:31:22 PM 45.0397 -97.9417 91° East 493 567 37,000  Level Minneapolis Center
Mon 04:32:24 PM 45.0364 -97.7478 91° East 493 567 37,000  Level Minneapolis Center
Mon 04:33:26 PM 45.0342 -97.5539 91° East 493 567 37,000  Level Minneapolis Center
Mon 04:34:28 PM 45.0303 -97.3597 92° East 493 567 37,000  Level Minneapolis Center
Mon 04:35:30 PM 45.0247 -97.1656 92° East 493 567 37,000  Level Minneapolis Center
Mon 04:36:32 PM 45.0214 -96.9711 91° East 494 568 37,000  Level Minneapolis Center
Mon 04:37:34 PM 45.0164 -96.7381 92° East 495 570 37,000 -48 Level Minneapolis Center
Mon 04:38:36 PM 45.0128 -96.5433 91° East 494 568 36,900 -532 Descending Minneapolis Center
Mon 04:39:38 PM 45.0083 -96.3483 92° East 495 570 35,900 -968 Descending Minneapolis Center
Mon 04:40:40 PM 45.0017 -96.1511 93° East 499 574 34,900 -912 Descending Minneapolis Center
Mon 04:41:43 PM 44.9964 -95.9553 92° East 498 573 34,000 -912 Descending Minneapolis Center
Mon 04:42:45 PM 44.9906 -95.7586 92° East 500 575 33,000 -1,065 Descending Minneapolis Center
Mon 04:43:47 PM 44.9831 -95.5231 92° East 500 575 31,800 -1,210 Descending Minneapolis Center
Mon 04:44:49 PM 44.9769 -95.3244 92° East 503 579 30,500 -2,226 Descending Minneapolis Center
Mon 04:45:51 PM 44.9689 -95.1256 93° East 506 582 27,200 -3,145 Descending Minneapolis Center
Mon 04:46:53 PM 44.9617 -94.9294 93° East 503 579 24,000 -3,435 Descending Minneapolis Center
Mon 04:47:55 PM 44.9553 -94.7392 93° East 492 566 20,100 -3,532 Descending Minneapolis Center
Mon 04:48:57 PM 44.9456 -94.5331 94° East 477 549 16,700 -3,194 Descending Minneapolis Center
Mon 04:49:59 PM 44.9381 -94.3594 93° East 447 514 13,500 -2,758 Descending Minneapolis Center
Mon 04:51:01 PM 44.9297 -94.1914 94° East 432 497 11,000 -1,210 Descending Minneapolis Center
Mon 04:52:03 PM 44.9222 -94.0244 94° East 427 491 11,000  Level Minneapolis Center
Mon 04:53:05 PM 44.9147 -93.8575 94° East 427 491 11,000  Level Minneapolis Center
Mon 04:54:07 PM 44.9042 -93.6606 94° East 419 482 11,000 -288 Level Minneapolis Center
Mon 04:55:10 PM 44.8808 -93.5239 104° East 366 421 10,400 -1,152 Descending Minneapolis Center
Mon 04:56:12 PM 44.8356 -93.4153 120° Southeast 324 373 8,600 -1,500 Descending Minneapolis Center
Mon 04:57:14 PM 44.8028 -93.3122 114° Southeast 288 331 7,300 -1,548 Descending Minneapolis Center
Mon 04:58:16 PM 44.7722 -93.2158 114° Southeast 263 303 5,400 -1,452 Descending Minneapolis Center
Mon 04:59:18 PM 44.7564 -93.1339 105° East 212 244 4,300 -1,113 Descending Minneapolis Center
Mon 05:00:20 PM 44.7992 -93.0914 35° Northeast 191 220 3,100 -968 Descending Minneapolis Center
Mon 05:01:22 PM 44.8417 -93.1044 348° North 159 183 2,300 -823 Descending Minneapolis Center
Mon 05:02:24 PM 44.8656 -93.1578 302° West 135 155 1,400 -871 Descending Minneapolis Center

Login

Don't have an account? Register now (free) for customized features, flight alerts, and more!